Time;durP1;ratioP1;P1;durP2;ratioP2;P2;SDS_P1;SDS_P2;PMS_P1;PMS_P2;Temp;Humidity;BMP_temperature;BMP_pressure;BME280_temperature;BME280_humidity;BME280_pressure;Samples;Min_cycle;Max_cycle;Signal;HPM_P1;HPM_P2
2022/08/25 00:01:15;;;;;;;2.57;2.37;;;;;;;;;;5050006;28;20447;-67
2022/08/25 00:03:43;;;;;;;2.33;2.00;;;;;;;;;;5050773;28;20454;-67
2022/08/25 00:06:11;;;;;;;3.10;2.20;;;;;;;;;;5050359;28;20509;-67
2022/08/25 00:08:39;;;;;;;3.30;2.23;;;;;;;;;;5049944;28;20446;-67
2022/08/25 00:11:06;;;;;;;3.07;2.17;;;;;;;;;;5050211;28;20709;-67
2022/08/25 00:13:34;;;;;;;2.00;1.80;;;;;;;;;;5049852;28;20451;-67
2022/08/25 00:16:01;;;;;;;2.53;2.10;;;;;;;;;;5050051;28;20439;-67
2022/08/25 00:18:28;;;;;;;2.50;2.27;;;;;;;;;;5059066;28;20446;-67
2022/08/25 00:20:57;;;;;;;5.17;2.20;;;;;;;;;;5049897;28;20443;-67
2022/08/25 00:23:24;;;;;;;2.40;2.13;;;;;;;;;;5050156;28;20446;-67
2022/08/25 00:25:51;;;;;;;1.93;1.73;;;;;;;;;;5049479;28;20745;-67
2022/08/25 00:28:18;;;;;;;2.43;2.10;;;;;;;;;;5046000;28;20457;-67
2022/08/25 00:30:47;;;;;;;3.13;2.00;;;;;;;;;;5050210;28;20544;-67
2022/08/25 00:33:14;;;;;;;3.50;1.93;;;;;;;;;;5037202;28;20447;-67
2022/08/25 00:35:41;;;;;;;1.90;1.70;;;;;;;;;;5050060;28;20778;-67
2022/08/25 00:38:10;;;;;;;2.87;2.30;;;;;;;;;;5049274;28;20447;-67
2022/08/25 00:40:39;;;;;;;2.17;1.97;;;;;;;;;;5049593;28;20462;-67
2022/08/25 00:43:06;;;;;;;1.90;1.80;;;;;;;;;;5049127;28;20803;-67
2022/08/25 00:45:33;;;;;;;2.13;1.93;;;;;;;;;;5049989;28;20475;-67
2022/08/25 00:48:01;;;;;;;2.23;2.03;;;;;;;;;;5042606;28;20461;-67
2022/08/25 00:50:29;;;;;;;2.70;2.17;;;;;;;;;;5049899;28;20537;-67
2022/08/25 00:52:58;;;;;;;4.03;2.80;;;;;;;;;;5039122;28;20524;-67
2022/08/25 00:55:28;;;;;;;2.33;2.13;;;;;;;;;;5049629;28;20813;-67
2022/08/25 00:57:57;;;;;;;2.00;1.70;;;;;;;;;;5048436;28;20468;-67
2022/08/25 01:00:26;;;;;;;2.13;1.93;;;;;;;;;;5049645;28;20453;-67
2022/08/25 01:02:55;;;;;;;4.93;2.57;;;;;;;;;;5049009;28;20447;-67
2022/08/25 01:05:22;;;;;;;2.60;2.40;;;;;;;;;;5049665;28;20482;-67
2022/08/25 01:07:51;;;;;;;2.03;1.83;;;;;;;;;;5048849;28;20443;-67
2022/08/25 01:10:18;;;;;;;2.90;1.97;;;;;;;;;;5049979;28;20445;-67
2022/08/25 01:12:47;;;;;;;2.90;2.60;;;;;;;;;;5049631;28;20455;-67
2022/08/25 01:15:15;;;;;;;8.23;2.57;;;;;;;;;;5053121;28;20482;-67
2022/08/25 01:17:46;;;;;;;2.03;1.87;;;;;;;;;;5052998;28;20457;-67
2022/08/25 01:20:14;;;;;;;2.37;2.17;;;;;;;;;;5053378;28;20442;-67
2022/08/25 01:22:42;;;;;;;2.67;1.83;;;;;;;;;;5053279;28;20450;-67
2022/08/25 01:25:17;;;;;;;3.07;1.83;;;;;;;;;;5039590;28;20555;-67
2022/08/25 01:27:44;;;;;;;3.17;2.40;;;;;;;;;;5052741;28;20452;-67
2022/08/25 01:30:12;;;;;;;4.37;2.13;;;;;;;;;;5053151;28;20450;-66
2022/08/25 01:32:39;;;;;;;2.73;2.10;;;;;;;;;;5052872;28;20446;-67
2022/08/25 01:35:06;;;;;;;4.57;2.17;;;;;;;;;;5052822;28;20707;-67
2022/08/25 01:37:35;;;;;;;2.57;2.37;;;;;;;;;;5052727;28;20443;-67
2022/08/25 01:40:04;;;;;;;3.20;2.33;;;;;;;;;;5052566;28;20451;-66
2022/08/25 01:42:38;;;;;;;2.27;2.00;;;;;;;;;;5053053;28;20527;-67
2022/08/25 01:45:05;;;;;;;2.27;1.70;;;;;;;;;;5052661;28;20457;-67
2022/08/25 01:47:33;;;;;;;2.73;2.47;;;;;;;;;;5052648;28;20457;-67
2022/08/25 01:50:00;;;;;;;3.20;2.33;;;;;;;;;;5052777;28;20469;-67
2022/08/25 01:52:29;;;;;;;2.60;2.03;;;;;;;;;;5052898;28;20765;-67
2022/08/25 01:54:56;;;;;;;2.10;1.80;;;;;;;;;;5052571;28;20466;-68
2022/08/25 01:57:24;;;;;;;2.67;2.00;;;;;;;;;;5052549;28;20449;-67
2022/08/25 01:59:52;;;;;;;3.17;2.10;;;;;;;;;;5052272;28;20454;-67
2022/08/25 02:02:19;;;;;;;2.80;2.20;;;;;;;;;;5052377;28;20442;-67
2022/08/25 02:04:46;;;;;;;2.70;2.00;;;;;;;;;;5052174;28;20449;-67
2022/08/25 02:07:13;;;;;;;2.10;1.90;;;;;;;;;;5052143;28;20483;-67
2022/08/25 02:09:41;;;;;;;3.43;2.37;;;;;;;;;;5052736;28;20849;-67
2022/08/25 02:12:09;;;;;;;2.43;2.20;;;;;;;;;;5051177;28;20473;-66
2022/08/25 02:14:37;;;;;;;2.67;1.90;;;;;;;;;;5052329;28;20486;-67
2022/08/25 02:17:05;;;;;;;3.00;2.20;;;;;;;;;;5048294;28;20459;-67
2022/08/25 02:19:32;;;;;;;2.67;2.20;;;;;;;;;;5052331;28;20450;-67
2022/08/25 02:22:00;;;;;;;1.83;1.73;;;;;;;;;;5051714;28;20469;-67
2022/08/25 02:24:27;;;;;;;2.20;2.00;;;;;;;;;;5051935;28;20537;-67
2022/08/25 02:26:54;;;;;;;2.90;2.23;;;;;;;;;;5050730;28;20488;-67
2022/08/25 02:29:21;;;;;;;3.03;2.20;;;;;;;;;;5052388;28;20457;-67
2022/08/25 02:31:50;;;;;;;2.20;1.73;;;;;;;;;;5051644;28;20457;-67
2022/08/25 02:34:17;;;;;;;2.83;1.90;;;;;;;;;;5052398;28;20445;-67
2022/08/25 02:36:45;;;;;;;2.10;1.90;;;;;;;;;;5051664;28;20946;-67
2022/08/25 02:39:13;;;;;;;2.23;1.90;;;;;;;;;;5051647;28;20992;-67
2022/08/25 02:41:40;;;;;;;2.97;2.63;;;;;;;;;;5052085;28;20849;-67
2022/08/25 02:44:08;;;;;;;2.57;2.03;;;;;;;;;;5051185;28;20882;-67
2022/08/25 02:46:35;;;;;;;2.40;2.20;;;;;;;;;;5051494;28;20478;-67
2022/08/25 02:49:04;;;;;;;2.60;2.40;;;;;;;;;;5051389;28;20860;-67
2022/08/25 02:51:32;;;;;;;2.70;2.03;;;;;;;;;;5051464;28;20964;-67
2022/08/25 02:54:00;;;;;;;2.67;2.33;;;;;;;;;;5050882;28;20953;-67
2022/08/25 02:56:28;;;;;;;2.50;2.10;;;;;;;;;;5051079;28;20472;-67
2022/08/25 02:58:56;;;;;;;3.20;2.37;;;;;;;;;;5050830;28;20457;-68
2022/08/25 03:01:23;;;;;;;2.67;2.10;;;;;;;;;;5051139;28;20916;-67
2022/08/25 03:03:51;;;;;;;2.40;2.10;;;;;;;;;;5051008;28;20819;-68
2022/08/25 03:06:23;;;;;;;3.10;2.10;;;;;;;;;;5050995;28;20993;-67
2022/08/25 03:08:50;;;;;;;2.50;2.30;;;;;;;;;;5050659;28;20449;-67
2022/08/25 03:11:17;;;;;;;3.17;2.57;;;;;;;;;;5050884;28;20505;-67
2022/08/25 03:13:45;;;;;;;2.90;2.40;;;;;;;;;;5051188;28;20535;-67
2022/08/25 03:16:12;;;;;;;3.27;2.30;;;;;;;;;;5051062;28;20553;-67
2022/08/25 03:18:40;;;;;;;2.60;2.10;;;;;;;;;;5051086;28;20807;-67
2022/08/25 03:21:07;;;;;;;2.63;2.43;;;;;;;;;;5050649;28;20455;-67
2022/08/25 03:23:36;;;;;;;2.17;1.80;;;;;;;;;;5051140;28;20851;-67
2022/08/25 03:28:47;;;;;;;3.43;2.67;;;;;;;;;;5044047;28;20573;-67
2022/08/25 03:31:14;;;;;;;3.53;2.27;;;;;;;;;;5050629;28;20969;-67
2022/08/25 03:33:42;;;;;;;2.43;2.23;;;;;;;;;;5050942;28;20964;-68
2022/08/25 03:36:10;;;;;;;3.03;2.47;;;;;;;;;;5049001;28;20933;-68
2022/08/25 03:38:39;;;;;;;4.00;2.40;;;;;;;;;;5050806;28;20946;-68
2022/08/25 03:41:13;;;;;;;3.60;2.83;;;;;;;;;;5050293;28;20870;-68
2022/08/25 03:43:40;;;;;;;2.80;1.87;;;;;;;;;;5050017;28;20458;-68
2022/08/25 03:46:07;;;;;;;3.27;2.13;;;;;;;;;;5049178;28;20814;-68
2022/08/25 03:48:34;;;;;;;3.30;2.40;;;;;;;;;;5050657;28;20443;-68
2022/08/25 03:51:02;;;;;;;4.33;2.70;;;;;;;;;;5050461;28;20439;-68
2022/08/25 03:53:29;;;;;;;3.20;2.07;;;;;;;;;;5050771;28;20446;-68
2022/08/25 03:55:57;;;;;;;3.77;2.40;;;;;;;;;;5050055;28;20457;-68
2022/08/25 03:58:24;;;;;;;4.00;2.27;;;;;;;;;;5050490;28;20439;-68
2022/08/25 04:00:52;;;;;;;3.13;2.57;;;;;;;;;;5043830;28;20455;-67
2022/08/25 04:03:19;;;;;;;3.60;2.80;;;;;;;;;;5050542;28;20508;-68
2022/08/25 04:05:47;;;;;;;3.00;2.00;;;;;;;;;;5050162;28;20470;-68
2022/08/25 04:08:14;;;;;;;4.23;2.53;;;;;;;;;;5050152;28;20448;-68
2022/08/25 04:10:41;;;;;;;4.47;2.90;;;;;;;;;;5050945;28;20446;-68
2022/08/25 04:13:11;;;;;;;3.63;2.33;;;;;;;;;;5049519;28;20454;-68
2022/08/25 04:15:42;;;;;;;4.50;2.00;;;;;;;;;;5049545;28;20474;-70
2022/08/25 04:18:12;;;;;;;3.17;2.87;;;;;;;;;;5049819;28;20443;-68
2022/08/25 04:20:39;;;;;;;2.73;2.53;;;;;;;;;;5050583;28;20447;-67
2022/08/25 04:23:06;;;;;;;3.70;2.63;;;;;;;;;;5050158;28;21228;-73
2022/08/25 04:25:34;;;;;;;3.27;2.03;;;;;;;;;;5050090;28;20914;-70
2022/08/25 04:28:01;;;;;;;2.87;2.43;;;;;;;;;;5049856;28;20904;-70
2022/08/25 04:30:30;;;;;;;2.80;2.30;;;;;;;;;;5050663;28;20450;-70
2022/08/25 04:32:57;;;;;;;3.27;2.30;;;;;;;;;;5049366;28;20538;-69
2022/08/25 04:35:24;;;;;;;3.77;2.93;;;;;;;;;;5059954;28;20458;-67
2022/08/25 04:37:51;;;;;;;4.03;2.40;;;;;;;;;;5050561;28;20995;-67
2022/08/25 04:40:19;;;;;;;2.97;2.67;;;;;;;;;;5055720;28;20543;-70
2022/08/25 04:42:46;;;;;;;5.53;3.00;;;;;;;;;;5051311;28;20443;-69
2022/08/25 04:45:13;;;;;;;3.43;2.53;;;;;;;;;;5054072;28;20454;-69
2022/08/25 04:47:42;;;;;;;4.03;2.63;;;;;;;;;;5050420;28;20835;-68
2022/08/25 04:50:09;;;;;;;2.60;2.40;;;;;;;;;;5052753;28;20899;-68
2022/08/25 04:52:37;;;;;;;2.50;2.30;;;;;;;;;;5053950;28;20454;-68
2022/08/25 04:55:04;;;;;;;2.57;2.10;;;;;;;;;;5053746;28;20933;-68
2022/08/25 04:57:32;;;;;;;3.40;2.60;;;;;;;;;;5054147;28;20805;-68
2022/08/25 04:59:59;;;;;;;3.67;2.60;;;;;;;;;;5052999;28;20446;-68
2022/08/25 05:02:26;;;;;;;2.40;2.03;;;;;;;;;;5054080;28;20473;-68
2022/08/25 05:04:55;;;;;;;3.70;2.93;;;;;;;;;;5053372;28;20455;-68
2022/08/25 05:07:22;;;;;;;3.63;2.80;;;;;;;;;;5053838;28;20489;-68
2022/08/25 05:09:49;;;;;;;2.87;2.40;;;;;;;;;;5052885;28;20940;-67
2022/08/25 05:12:17;;;;;;;4.17;2.37;;;;;;;;;;5053520;28;20535;-68
2022/08/25 05:14:44;;;;;;;4.40;3.10;;;;;;;;;;5053907;28;20575;-68
2022/08/25 05:17:11;;;;;;;4.03;2.77;;;;;;;;;;5054288;28;20525;-68
2022/08/25 05:19:38;;;;;;;3.33;2.30;;;;;;;;;;5053457;28;20495;-68
2022/08/25 05:22:07;;;;;;;3.43;2.37;;;;;;;;;;5053381;28;20910;-68
2022/08/25 05:24:34;;;;;;;3.80;3.10;;;;;;;;;;5053768;28;20446;-68
2022/08/25 05:27:02;;;;;;;6.23;3.03;;;;;;;;;;5053194;28;20496;-68
2022/08/25 05:29:29;;;;;;;4.50;2.73;;;;;;;;;;5052787;28;20949;-68
2022/08/25 05:31:57;;;;;;;4.20;2.90;;;;;;;;;;5053102;28;20458;-68
2022/08/25 05:34:24;;;;;;;4.00;2.53;;;;;;;;;;5053182;28;20450;-68
2022/08/25 05:36:51;;;;;;;2.90;2.60;;;;;;;;;;5053268;28;20530;-68
2022/08/25 05:39:20;;;;;;;3.40;2.80;;;;;;;;;;5053227;28;20481;-68
2022/08/25 05:41:47;;;;;;;4.57;2.83;;;;;;;;;;5053021;28;20533;-68
2022/08/25 05:44:16;;;;;;;2.90;2.33;;;;;;;;;;5053381;28;20462;-68
2022/08/25 05:46:43;;;;;;;3.80;2.53;;;;;;;;;;5063826;28;20492;-68
2022/08/25 05:49:10;;;;;;;3.30;2.80;;;;;;;;;;5054195;28;20446;-68
2022/08/25 05:51:37;;;;;;;5.20;3.07;;;;;;;;;;5053388;28;20450;-69
2022/08/25 05:54:05;;;;;;;4.47;3.33;;;;;;;;;;5052615;28;20533;-68
2022/08/25 05:56:33;;;;;;;3.40;2.97;;;;;;;;;;5053160;28;20490;-68
2022/08/25 05:59:00;;;;;;;3.30;2.80;;;;;;;;;;5051094;28;20451;-69
2022/08/25 06:04:13;;;;;;;2.77;2.33;;;;;;;;;;5053124;28;20510;-69
2022/08/25 06:06:41;;;;;;;3.40;2.73;;;;;;;;;;5052905;28;20486;-68
2022/08/25 06:09:08;;;;;;;4.43;3.67;;;;;;;;;;5052112;28;20453;-68
2022/08/25 06:11:38;;;;;;;3.07;2.53;;;;;;;;;;5052876;28;20490;-68
2022/08/25 06:14:06;;;;;;;4.27;2.77;;;;;;;;;;5051937;28;21149;-69
2022/08/25 06:16:33;;;;;;;4.57;3.07;;;;;;;;;;5052790;28;20461;-68
2022/08/25 06:19:01;;;;;;;4.60;3.43;;;;;;;;;;5051640;28;20537;-68
2022/08/25 06:21:28;;;;;;;4.40;3.10;;;;;;;;;;5052293;28;20458;-68
2022/08/25 06:23:55;;;;;;;3.70;2.40;;;;;;;;;;5052055;28;20454;-70
2022/08/25 06:26:22;;;;;;;3.77;2.90;;;;;;;;;;5052258;28;20513;-68
2022/08/25 06:28:51;;;;;;;5.70;3.10;;;;;;;;;;5051888;28;20508;-68
2022/08/25 06:31:19;;;;;;;3.63;3.33;;;;;;;;;;5052524;28;20451;-68
2022/08/25 06:33:46;;;;;;;3.70;3.40;;;;;;;;;;5052415;28;20458;-68
2022/08/25 06:36:14;;;;;;;3.60;2.53;;;;;;;;;;5052538;28;20535;-68
2022/08/25 06:38:41;;;;;;;4.53;3.57;;;;;;;;;;5052335;28;20884;-68
2022/08/25 06:41:09;;;;;;;5.10;3.20;;;;;;;;;;5051818;28;20447;-68
2022/08/25 06:43:36;;;;;;;6.30;3.10;;;;;;;;;;5052093;28;20859;-68
2022/08/25 06:46:10;;;;;;;5.03;3.13;;;;;;;;;;5051217;28;20455;-68
2022/08/25 06:48:37;;;;;;;3.93;3.30;;;;;;;;;;5051681;28;20484;-68
2022/08/25 06:51:08;;;;;;;4.50;3.60;;;;;;;;;;5038111;28;20489;-68
2022/08/25 06:53:35;;;;;;;4.43;3.30;;;;;;;;;;5051952;28;20957;-68
2022/08/25 06:56:02;;;;;;;3.80;2.90;;;;;;;;;;5051630;28;20442;-69
2022/08/25 06:58:30;;;;;;;4.00;3.20;;;;;;;;;;5051427;28;20987;-68
2022/08/25 07:00:57;;;;;;;5.47;3.33;;;;;;;;;;5051141;28;20537;-69
2022/08/25 07:03:25;;;;;;;3.40;2.97;;;;;;;;;;5051516;28;21039;-68
2022/08/25 07:05:53;;;;;;;7.10;3.47;;;;;;;;;;5051454;28;20501;-68
2022/08/25 07:08:20;;;;;;;4.07;3.60;;;;;;;;;;5051311;28;20834;-69
2022/08/25 07:10:47;;;;;;;5.60;4.20;;;;;;;;;;5051080;28;20447;-68
2022/08/25 07:13:14;;;;;;;5.23;3.67;;;;;;;;;;5051331;28;20945;-68
2022/08/25 07:15:42;;;;;;;4.90;3.30;;;;;;;;;;5051866;28;20485;-69
2022/08/25 07:18:10;;;;;;;5.33;4.13;;;;;;;;;;5050328;28;20463;-69
2022/08/25 07:20:38;;;;;;;4.73;3.40;;;;;;;;;;5051344;28;20950;-69
2022/08/25 07:23:06;;;;;;;5.20;3.70;;;;;;;;;;5050637;28;20950;-69
2022/08/25 07:25:33;;;;;;;6.33;3.60;;;;;;;;;;5051084;28;20447;-68
2022/08/25 07:28:00;;;;;;;5.00;3.23;;;;;;;;;;5050376;28;20482;-69
2022/08/25 07:30:28;;;;;;;5.27;4.23;;;;;;;;;;5050708;28;20462;-69
2022/08/25 07:32:55;;;;;;;3.30;3.00;;;;;;;;;;5051011;28;20453;-69
2022/08/25 07:35:23;;;;;;;4.43;4.00;;;;;;;;;;5051090;28;20965;-69
2022/08/25 07:37:55;;;;;;;6.60;3.93;;;;;;;;;;5050356;28;20455;-68
2022/08/25 07:40:24;;;;;;;5.10;3.20;;;;;;;;;;5050567;28;20439;-68
2022/08/25 07:42:52;;;;;;;4.23;3.33;;;;;;;;;;5050347;28;20443;-68
2022/08/25 07:45:20;;;;;;;3.97;3.60;;;;;;;;;;5050859;28;20461;-69
2022/08/25 07:47:47;;;;;;;3.90;3.17;;;;;;;;;;5063599;28;20575;-68
2022/08/25 07:50:14;;;;;;;5.13;3.57;;;;;;;;;;5050898;28;20801;-70
2022/08/25 07:52:41;;;;;;;4.47;3.67;;;;;;;;;;5051017;28;20457;-69
2022/08/25 07:55:10;;;;;;;5.27;4.07;;;;;;;;;;5050055;28;20451;-69
2022/08/25 07:57:40;;;;;;;5.80;3.40;;;;;;;;;;5050679;28;20949;-69
2022/08/25 08:00:08;;;;;;;5.37;3.30;;;;;;;;;;5049679;28;20901;-69
2022/08/25 08:02:35;;;;;;;5.00;3.73;;;;;;;;;;5050672;28;20938;-69
2022/08/25 08:05:02;;;;;;;7.30;3.67;;;;;;;;;;5049981;28;20447;-69
2022/08/25 08:07:30;;;;;;;5.27;3.87;;;;;;;;;;5050905;28;21008;-69
2022/08/25 08:09:58;;;;;;;3.83;3.43;;;;;;;;;;5049516;28;20446;-69
2022/08/25 08:12:27;;;;;;;3.53;3.00;;;;;;;;;;5050834;28;20457;-69
2022/08/25 08:14:54;;;;;;;4.50;4.10;;;;;;;;;;5049551;28;20544;-69
2022/08/25 08:17:21;;;;;;;3.17;2.87;;;;;;;;;;5050698;28;20792;-69
2022/08/25 08:19:49;;;;;;;4.80;4.10;;;;;;;;;;5049789;28;20453;-68
2022/08/25 08:22:16;;;;;;;5.17;3.33;;;;;;;;;;5050535;28;20786;-69
2022/08/25 08:24:44;;;;;;;3.63;3.20;;;;;;;;;;5050618;28;20453;-69
2022/08/25 08:27:11;;;;;;;3.83;3.43;;;;;;;;;;5050752;28;20458;-69
2022/08/25 08:29:41;;;;;;;4.03;3.00;;;;;;;;;;5049758;28;20960;-69
2022/08/25 08:32:11;;;;;;;4.20;3.37;;;;;;;;;;5049750;28;20497;-69
2022/08/25 08:34:39;;;;;;;3.80;3.40;;;;;;;;;;5050129;28;20508;-69
2022/08/25 08:37:06;;;;;;;3.57;3.27;;;;;;;;;;5049775;28;20545;-69
2022/08/25 08:39:34;;;;;;;3.83;3.10;;;;;;;;;;5049812;28;20490;-69
2022/08/25 08:42:16;;;;;;;5.13;3.67;;;;;;;;;;5050052;28;20442;-69
2022/08/25 08:44:49;;;;;;;5.00;3.80;;;;;;;;;;5050491;28;20459;-69
2022/08/25 08:47:22;;;;;;;3.90;2.90;;;;;;;;;;5049982;28;20529;-69
2022/08/25 08:49:53;;;;;;;3.30;3.00;;;;;;;;;;5049629;28;20438;-68
2022/08/25 08:52:22;;;;;;;3.50;2.93;;;;;;;;;;5050440;28;20446;-69
2022/08/25 08:54:51;;;;;;;4.53;3.80;;;;;;;;;;5049906;28;20461;-69
2022/08/25 08:57:20;;;;;;;6.00;3.03;;;;;;;;;;5050350;28;20473;-69
2022/08/25 08:59:50;;;;;;;3.90;3.20;;;;;;;;;;5049281;28;20450;-68
2022/08/25 09:02:24;;;;;;;3.00;2.70;;;;;;;;;;5049979;28;20530;-69
2022/08/25 09:04:54;;;;;;;3.27;2.97;;;;;;;;;;5049908;28;20450;-68
2022/08/25 09:07:24;;;;;;;4.57;3.77;;;;;;;;;;5036805;28;20525;-69
2022/08/25 09:09:51;;;;;;;3.73;3.43;;;;;;;;;;5048891;28;20443;-69
2022/08/25 09:12:23;;;;;;;4.23;3.40;;;;;;;;;;5050048;28;20876;-69
2022/08/25 09:14:58;;;;;;;3.60;3.30;;;;;;;;;;5049065;28;20861;-69
2022/08/25 09:17:34;;;;;;;5.10;3.67;;;;;;;;;;5050241;28;20750;-69
2022/08/25 09:20:14;;;;;;;3.57;3.27;;;;;;;;;;5049016;28;20964;-69
2022/08/25 09:22:49;;;;;;;3.30;2.90;;;;;;;;;;5050354;28;20845;-69
2022/08/25 09:25:18;;;;;;;3.90;2.97;;;;;;;;;;5037300;28;20449;-69
2022/08/25 09:27:51;;;;;;;3.90;2.97;;;;;;;;;;5050131;28;20518;-69
2022/08/25 09:30:20;;;;;;;4.93;3.50;;;;;;;;;;5049639;28;20466;-69
2022/08/25 09:32:49;;;;;;;3.00;2.70;;;;;;;;;;5049359;28;20454;-69
2022/08/25 09:35:19;;;;;;;4.00;3.50;;;;;;;;;;5051835;28;20450;-70
2022/08/25 09:37:56;;;;;;;3.20;2.90;;;;;;;;;;5053254;28;20443;-68
2022/08/25 09:40:24;;;;;;;2.90;2.70;;;;;;;;;;5053431;28;20933;-69
2022/08/25 09:42:53;;;;;;;6.07;3.10;;;;;;;;;;5052590;28;20450;-69
2022/08/25 09:45:32;;;;;;;4.33;3.37;;;;;;;;;;5053574;28;20564;-69
2022/08/25 09:48:00;;;;;;;5.30;3.20;;;;;;;;;;5052220;28;20604;-69
2022/08/25 09:50:30;;;;;;;3.03;2.50;;;;;;;;;;5053338;28;20874;-69
2022/08/25 09:53:11;;;;;;;4.33;3.70;;;;;;;;;;5052831;28;20457;-69
2022/08/25 09:55:39;;;;;;;3.90;2.90;;;;;;;;;;5052842;28;20474;-69
2022/08/25 09:58:16;;;;;;;4.07;3.20;;;;;;;;;;5051746;28;20458;-69
2022/08/25 10:00:45;;;;;;;3.80;3.20;;;;;;;;;;5053059;28;20529;-69
2022/08/25 10:03:15;;;;;;;3.03;2.67;;;;;;;;;;5053255;28;20538;-69
2022/08/25 10:05:50;;;;;;;3.30;3.00;;;;;;;;;;5053377;28;20451;-70
2022/08/25 10:08:25;;;;;;;3.40;3.10;;;;;;;;;;5052581;28;20481;-69
2022/08/25 10:10:56;;;;;;;3.50;2.93;;;;;;;;;;5052078;28;20523;-70
2022/08/25 10:13:33;;;;;;;3.90;2.63;;;;;;;;;;5052264;28;20443;-69
2022/08/25 10:16:05;;;;;;;3.40;3.10;;;;;;;;;;5052426;28;20453;-69
2022/08/25 10:18:32;;;;;;;3.60;3.10;;;;;;;;;;5052201;28;20500;-70
2022/08/25 10:21:03;;;;;;;4.03;3.40;;;;;;;;;;5052468;28;20454;-69
2022/08/25 10:23:31;;;;;;;3.47;2.60;;;;;;;;;;5052503;28;20568;-69
2022/08/25 10:26:02;;;;;;;3.70;2.70;;;;;;;;;;5052165;28;20541;-69
2022/08/25 10:28:33;;;;;;;2.60;2.40;;;;;;;;;;5052070;28;20503;-69
2022/08/25 10:31:05;;;;;;;3.93;3.50;;;;;;;;;;5052168;28;20449;-69
2022/08/25 10:33:38;;;;;;;4.90;3.83;;;;;;;;;;5052718;28;20479;-69
2022/08/25 10:36:08;;;;;;;3.13;2.83;;;;;;;;;;5052021;28;20525;-69
2022/08/25 10:38:37;;;;;;;3.13;2.80;;;;;;;;;;5051800;28;20742;-69
2022/08/25 10:41:13;;;;;;;2.90;2.70;;;;;;;;;;5051804;28;20637;-69
2022/08/25 10:43:44;;;;;;;3.40;2.50;;;;;;;;;;5052260;28;20457;-69
2022/08/25 10:46:15;;;;;;;2.67;2.17;;;;;;;;;;5051980;28;20435;-69
2022/08/25 10:48:52;;;;;;;2.90;2.53;;;;;;;;;;5051971;28;20833;-69
2022/08/25 10:51:30;;;;;;;5.23;3.07;;;;;;;;;;5052029;28;20496;-70
2022/08/25 10:53:59;;;;;;;3.00;2.50;;;;;;;;;;5051364;28;20465;-70
2022/08/25 10:56:29;;;;;;;2.73;2.53;;;;;;;;;;5051870;28;20529;-69
2022/08/25 10:59:07;;;;;;;3.83;3.37;;;;;;;;;;5050824;28;20458;-69
2022/08/25 11:01:40;;;;;;;3.70;2.93;;;;;;;;;;5051700;28;20438;-69
2022/08/25 11:04:10;;;;;;;2.93;2.63;;;;;;;;;;5051409;28;20465;-70
2022/08/25 11:06:40;;;;;;;2.00;1.80;;;;;;;;;;5051973;28;20537;-69
2022/08/25 11:09:08;;;;;;;2.50;2.30;;;;;;;;;;5050938;28;20918;-70
2022/08/25 11:11:38;;;;;;;2.50;2.20;;;;;;;;;;5051589;28;20445;-70
2022/08/25 11:14:07;;;;;;;2.63;2.40;;;;;;;;;;5050563;28;20489;-70
2022/08/25 11:16:37;;;;;;;4.70;2.90;;;;;;;;;;5051527;28;21066;-70
2022/08/25 11:19:07;;;;;;;3.60;2.20;;;;;;;;;;5050672;28;20533;-70
2022/08/25 11:21:40;;;;;;;3.10;2.77;;;;;;;;;;5051283;28;20530;-70
2022/08/25 11:24:13;;;;;;;3.20;2.63;;;;;;;;;;5051181;28;20491;-70
2022/08/25 11:26:43;;;;;;;2.90;2.30;;;;;;;;;;5051299;28;21020;-70
2022/08/25 11:29:13;;;;;;;2.97;2.50;;;;;;;;;;5049870;28;20485;-71
2022/08/25 11:31:43;;;;;;;2.77;2.53;;;;;;;;;;5051228;28;20482;-70
2022/08/25 11:34:13;;;;;;;2.60;2.40;;;;;;;;;;5050716;28;20458;-70
2022/08/25 11:36:43;;;;;;;3.23;2.90;;;;;;;;;;5051049;28;20445;-70
2022/08/25 11:39:15;;;;;;;2.93;2.63;;;;;;;;;;5050084;28;20988;-70
2022/08/25 11:41:50;;;;;;;3.67;3.03;;;;;;;;;;5051334;28;20814;-70
2022/08/25 11:44:31;;;;;;;2.73;2.40;;;;;;;;;;5051095;28;20480;-70
2022/08/25 11:47:10;;;;;;;2.87;2.60;;;;;;;;;;5050441;28;20533;-70
2022/08/25 11:49:47;;;;;;;3.10;2.30;;;;;;;;;;5050391;28;20470;-70
2022/08/25 11:52:29;;;;;;;2.50;2.30;;;;;;;;;;5051035;28;20568;-70
2022/08/25 11:55:05;;;;;;;4.10;2.80;;;;;;;;;;5050097;28;20450;-70
2022/08/25 11:57:33;;;;;;;2.40;1.90;;;;;;;;;;5050431;28;20520;-70
2022/08/25 12:00:03;;;;;;;2.70;2.50;;;;;;;;;;5049916;28;20460;-70
2022/08/25 12:02:32;;;;;;;2.87;2.67;;;;;;;;;;5050806;28;20534;-70
2022/08/25 12:04:59;;;;;;;2.37;2.17;;;;;;;;;;5050324;28;20450;-70
2022/08/25 12:07:28;;;;;;;3.90;2.40;;;;;;;;;;5050819;28;20442;-70
2022/08/25 12:10:19;;;;;;;2.60;2.40;;;;;;;;;;5049719;28;20492;-70
2022/08/25 12:12:57;;;;;;;3.10;2.37;;;;;;;;;;5050275;28;20438;-69
2022/08/25 12:15:26;;;;;;;2.53;2.33;;;;;;;;;;5050158;28;20499;-72
2022/08/25 12:18:08;;;;;;;3.30;3.00;;;;;;;;;;5049521;28;20507;-70
2022/08/25 12:20:55;;;;;;;3.53;2.70;;;;;;;;;;5050361;28;20460;-71
2022/08/25 12:23:28;;;;;;;2.93;2.63;;;;;;;;;;5050497;28;20453;-70
2022/08/25 12:25:59;;;;;;;2.40;2.13;;;;;;;;;;5049880;28;20450;-70
2022/08/25 12:28:37;;;;;;;3.13;2.83;;;;;;;;;;5050283;28;20878;-70
2022/08/25 12:31:08;;;;;;;2.40;2.20;;;;;;;;;;5050079;28;20511;-70
2022/08/25 12:33:41;;;;;;;3.07;2.77;;;;;;;;;;5050370;28;20525;-70
2022/08/25 12:36:10;;;;;;;2.83;2.60;;;;;;;;;;5050037;28;20544;-70
2022/08/25 12:38:39;;;;;;;2.63;2.43;;;;;;;;;;5050194;28;20545;-70
2022/08/25 12:41:10;;;;;;;2.47;2.27;;;;;;;;;;5049841;28;20458;-70
2022/08/25 12:43:39;;;;;;;2.67;2.47;;;35.70;1.00;;;;;;5050399;28;20461;-70
2022/08/25 12:46:33;;;;;;;2.60;2.40;;;29.60;1.00;;;;;;5049838;28;20569;-70
2022/08/25 12:49:01;;;;;;;3.37;3.07;;;29.40;1.00;;;;;;5049229;28;20504;-70
2022/08/25 12:51:46;;;;;;;3.90;2.70;;;29.40;1.00;;;;;;5050117;28;20573;-70
2022/08/25 12:54:18;;;;;;;2.60;2.40;;;29.60;1.00;;;;;;5050683;28;20525;-70
2022/08/25 12:56:51;;;;;;;2.90;2.60;;;29.70;1.00;;;;;;5050611;28;20529;-70
2022/08/25 12:59:20;;;;;;;2.80;2.60;;;29.40;1.00;;;;;;5049581;28;20464;-70
2022/08/25 13:02:06;;;;;;;2.47;2.27;;;29.60;1.00;;;;;;5049660;28;20541;-69
2022/08/25 13:05:03;;;;;;;2.90;2.70;;;29.70;1.00;;;;;;5050379;28;20528;-70
2022/08/25 13:07:42;;;;;;;2.30;2.10;;;30.40;1.00;;;;;;5050031;28;20446;-70
2022/08/25 13:10:33;;;;;;;2.53;2.33;;;30.40;1.00;;;;;;5052961;28;20221;-70
2022/08/25 13:13:06;;;;;;;2.70;2.50;;;30.20;1.00;;;;;;5051796;28;20545;-67
2022/08/25 13:15:37;;;;;;;3.47;2.37;;;30.20;1.00;;;;;;5054001;28;20488;-70
2022/08/25 13:18:21;;;;;;;2.80;2.13;;;29.90;1.00;;;;;;5052882;28;20689;-70
2022/08/25 13:20:52;;;;;;;2.47;2.27;;;30.00;1.00;;;;;;5053624;28;20799;-70
2022/08/25 13:23:26;;;;;;;2.10;2.00;;;30.30;1.00;;;;;;5053717;28;20238;-70
2022/08/25 13:25:54;;;;;;;2.00;1.80;;;30.70;1.00;;;;;;5053017;28;20231;-70
2022/08/25 13:28:26;;;;;;;2.67;2.47;;;30.60;1.00;;;;;;5053339;28;20290;-70
2022/08/25 13:31:00;;;;;;;2.67;2.47;;;30.80;1.00;;;;;;5053066;28;20211;-70
2022/08/25 13:33:27;;;;;;;2.30;2.10;;;30.50;1.00;;;;;;5053720;28;20195;-70
2022/08/25 13:38:37;;;;;;;2.10;2.00;;;30.20;1.00;;;;;;5052704;28;20694;-70
2022/08/25 13:41:05;;;;;;;2.30;1.90;;;30.40;1.00;;;;;;5052673;28;20757;-69
2022/08/25 13:43:35;;;;;;;2.20;2.00;;;30.90;1.00;;;;;;5053600;28;20195;-70
2022/08/25 13:46:02;;;;;;;2.23;2.03;;;31.30;1.00;;;;;;5052462;28;20631;-70
2022/08/25 13:48:34;;;;;;;2.50;2.30;;;30.90;1.00;;;;;;5052840;28;20214;-70
2022/08/25 13:51:16;;;;;;;2.33;2.00;;;30.40;1.00;;;;;;5052375;28;20249;-70
2022/08/25 13:53:49;;;;;;;2.30;2.10;;;30.00;1.00;;;;;;5053282;28;20639;-70
2022/08/25 13:56:25;;;;;;;2.90;2.70;;;29.70;1.00;;;;;;5053396;28;20203;-70
2022/08/25 13:58:54;;;;;;;2.93;2.60;;;29.40;1.00;;;;;;5052320;28;20203;-69
2022/08/25 14:01:24;;;;;;;2.20;2.00;;;29.30;1.00;;;;;;5053042;28;20214;-70
2022/08/25 14:03:52;;;;;;;2.93;2.17;;;29.30;1.00;;;;;;5052222;28;20533;-70
2022/08/25 14:06:21;;;;;;;2.93;2.43;;;29.30;1.00;;;;;;5053194;28;20205;-70
2022/08/25 14:09:03;;;;;;;2.33;2.13;;;29.30;1.00;;;;;;5051953;28;20456;-68
2022/08/25 14:11:40;;;;;;;3.23;2.20;;;29.40;1.00;;;;;;5052742;28;20205;-69
2022/08/25 14:14:11;;;;;;;3.10;2.80;;;29.50;1.00;;;;;;5051866;28;20576;-69
2022/08/25 14:16:41;;;;;;;3.30;2.80;;;29.50;1.00;;;;;;5052582;28;20438;-70
2022/08/25 14:19:14;;;;;;;2.20;2.00;;;29.30;1.00;;;;;;5052009;28;20456;-69
2022/08/25 14:21:40;;;;;;;2.60;2.40;;;29.40;1.00;;;;;;5051983;28;20480;-69
2022/08/25 14:24:08;;;;;;;4.00;2.43;;;29.90;1.00;;;;;;5051850;28;20456;-69
2022/08/25 14:26:35;;;;;;;3.20;2.37;;;30.30;1.00;;;;;;5052635;28;20203;-69
2022/08/25 14:29:02;;;;;;;2.40;2.20;;;30.70;1.00;;;;;;5051390;28;20223;-69
2022/08/25 14:31:33;;;;;;;3.03;2.03;;;31.00;1.00;;;;;;5052248;28;20541;-69
2022/08/25 14:34:03;;;;;;;2.60;2.40;;;31.70;1.00;;;;;;5051906;28;20992;-69
2022/08/25 14:36:31;;;;;;;3.97;2.73;;;;;;;;;;5039603;28;20196;-69
2022/08/25 14:38:58;;;;;;;4.60;2.90;;;;;;;;;;5051177;28;20204;-70
2022/08/25 14:41:26;;;;;;;3.43;2.47;;;;;;;;;;5052321;28;20207;-70
2022/08/25 14:43:53;;;;;;;5.07;3.03;;;;;;;;;;5051771;28;20204;-69
2022/08/25 14:46:21;;;;;;;3.90;3.60;;;;;;;;;;5059767;28;20290;-69
2022/08/25 14:48:53;;;;;;;2.07;1.97;;;;;;;;;;5056798;28;20205;-69
2022/08/25 14:51:20;;;;;;;4.40;2.57;;;;;;;;;;5052402;28;20207;-69